Time,TemperatureF,DewpointF,PressureIn,WindDirection,WindDirectionDegrees,WindSpeedMPH,WindSpeedGustMPH,Humidity,HourlyPrecipIn,Conditions,Clouds,dailyrainin,SoftwareType,DateUTC
2014-01-01 01:22:00,7.0,4.0,30.15,North,355,0.0,4.0,87,0.00,,,0.00,,2014-01-01 08:22:00,
2014-01-01 01:42:00,7.0,4.0,30.15,North,355,0.0,0.0,87,0.00,,,0.00,,2014-01-01 08:42:00,
2014-01-01 01:52:00,7.0,4.0,30.15,North,355,0.0,0.0,87,0.00,,,0.00,,2014-01-01 08:52:00,
2014-01-01 02:11:00,7.0,4.0,30.16,North,355,0.0,0.0,87,0.00,,,0.00,,2014-01-01 09:11:00,
2014-01-01 02:21:00,7.0,4.0,30.16,North,355,0.0,0.0,87,0.00,,,0.00,,2014-01-01 09:21:00,
2014-01-01 02:33:00,7.0,4.0,30.16,North,355,0.0,0.0,87,0.00,,,0.00,,2014-01-01 09:33:00,
2014-01-01 02:43:00,7.0,4.0,30.16,North,355,0.0,0.0,87,0.00,,,0.00,,2014-01-01 09:43:00,
2014-01-01 05:12:00,10.0,7.0,30.20,North,355,0.0,0.0,87,0.00,,,0.00,,2014-01-01 12:12:00,
2014-01-01 05:22:00,10.0,7.0,30.20,North,355,0.0,0.0,88,0.00,,,0.00,,2014-01-01 12:22:00,
2014-01-01 05:42:00,10.0,7.0,30.21,North,355,0.0,0.0,88,0.00,,,0.00,,2014-01-01 12:42:00,
2014-01-01 05:52:00,10.0,7.0,30.22,North,355,0.0,0.0,88,0.00,,,0.00,,2014-01-01 12:52:00,
2014-01-01 06:12:00,10.0,7.0,30.22,North,355,0.0,0.0,88,0.00,,,0.00,,2014-01-01 13:12:00,
2014-01-01 06:22:00,10.0,7.0,30.22,North,355,0.0,0.0,88,0.00,,,0.00,,2014-01-01 13:22:00,
2014-01-01 06:32:00,10.0,7.0,30.22,North,355,0.0,0.0,88,0.00,,,0.00,,2014-01-01 13:32:00,
2014-01-01 08:43:00,6.0,2.0,30.33,North,350,1.0,7.0,85,0.00,,,0.00,,2014-01-01 15:43:00,
2014-01-01 08:53:00,5.0,2.0,30.35,NNW,344,5.0,8.0,85,0.00,,,0.00,,2014-01-01 15:53:00,
2014-01-01 09:13:00,5.0,1.0,30.35,NNW,333,6.0,11.0,84,0.00,,,0.00,,2014-01-01 16:13:00,
2014-01-01 09:23:00,5.0,2.0,30.37,NNW,333,0.0,5.0,85,0.00,,,0.00,,2014-01-01 16:23:00,
2014-01-01 09:33:00,5.0,2.0,30.37,NNW,333,0.0,5.0,85,0.00,,,0.00,,2014-01-01 16:33:00,
2014-01-01 09:43:00,5.0,2.0,30.37,NNW,333,0.0,5.0,85,0.00,,,0.00,,2014-01-01 16:43:00,
2014-01-01 09:53:00,5.0,2.0,30.37,NNW,333,0.0,5.0,85,0.00,,,0.00,,2014-01-01 16:53:00,
2014-01-01 10:02:00,5.0,2.0,30.37,NNW,333,0.0,5.0,85,0.00,,,0.00,,2014-01-01 17:02:00,
2014-01-01 12:12:00,6.0,2.0,30.37,WNW,284,4.0,8.0,84,0.00,,,0.00,,2014-01-01 19:12:00,
2014-01-01 12:22:00,6.0,2.0,30.37,West,277,5.0,7.0,84,0.00,,,0.00,,2014-01-01 19:22:00,
2014-01-01 12:42:00,7.0,3.0,30.36,WNW,287,5.0,9.0,84,0.00,,,0.00,,2014-01-01 19:42:00,
2014-01-01 12:53:00,7.0,3.0,30.36,WNW,290,0.0,6.0,84,0.00,,,0.00,,2014-01-01 19:53:00,
2014-01-01 13:02:00,7.0,3.0,30.36,WNW,290,0.0,6.0,84,0.00,,,0.00,,2014-01-01 20:02:00,
2014-01-01 13:12:00,7.0,3.0,30.36,WNW,290,0.0,6.0,84,0.00,,,0.00,,2014-01-01 20:12:00,
2014-01-01 13:22:00,7.0,3.0,30.36,WNW,290,0.0,6.0,84,0.00,,,0.00,,2014-01-01 20:22:00,
2014-01-01 13:32:00,7.0,3.0,30.36,WNW,290,0.0,6.0,84,0.00,,,0.00,,2014-01-01 20:32:00,
2014-01-01 15:53:00,10.0,6.0,30.34,West,265,0.0,3.0,85,0.00,,,0.00,,2014-01-01 22:53:00,
2014-01-01 16:22:00,10.0,7.0,30.32,SW,217,4.0,7.0,86,0.00,,,0.00,,2014-01-01 23:22:00,
2014-01-01 16:42:00,10.0,7.0,30.31,SSW,201,4.0,7.0,87,0.00,,,0.00,,2014-01-01 23:42:00,
2014-01-01 16:53:00,10.0,7.0,30.31,SSW,201,4.0,7.0,87,0.00,,,0.00,,2014-01-01 23:53:00,
2014-01-01 17:02:00,10.0,7.0,30.31,SSW,201,4.0,7.0,87,0.00,,,0.00,,2014-01-02 00:02:00,
2014-01-01 17:11:00,10.0,7.0,30.31,SSW,201,4.0,7.0,87,0.00,,,0.00,,2014-01-02 00:11:00,
2014-01-01 19:22:00,11.0,8.0,30.29,SSW,201,0.0,0.0,89,0.00,,,0.00,,2014-01-02 02:22:00,
2014-01-01 20:12:00,12.0,9.0,30.28,SSW,201,0.0,0.0,89,0.00,,,0.00,,2014-01-02 03:12:00,
2014-01-01 20:22:00,12.0,9.0,30.28,SSW,201,0.0,0.0,89,0.00,,,0.00,,2014-01-02 03:22:00,
2014-01-01 20:33:00,12.0,9.0,30.28,SSW,201,0.0,0.0,89,0.00,,,0.00,,2014-01-02 03:33:00,
2014-01-01 20:43:00,12.0,9.0,30.28,SSW,201,0.0,0.0,89,0.00,,,0.00,,2014-01-02 03:43:00,
2014-01-01 22:53:00,11.0,8.0,30.26,NNE,17,0.0,7.0,89,0.00,,,0.00,,2014-01-02 05:53:00,
2014-01-01 23:20:00,12.0,9.0,30.25,NNE,17,4.0,7.0,89,0.00,,,0.00,,2014-01-02 06:20:00,
2014-01-01 23:22:00,12.0,9.0,30.25,NNE,17,2.0,4.0,89,0.00,,,0.00,,2014-01-02 06:22:00,
2014-01-01 23:42:00,12.0,9.0,30.25,NNE,17,4.0,7.0,89,0.00,,,0.00,,2014-01-02 06:42:00,
2014-01-01 23:52:00,12.0,9.0,30.25,NNE,17,4.0,7.0,89,0.00,,,0.00,,2014-01-02 06:52:00,